sensor_id;sensor_type;location;lat;lon;timestamp;temperature;humidity
418;DHT22;49;48.530;9.200;2022-07-06T00:00:51;23.70;33.50
418;DHT22;49;48.530;9.200;2022-07-06T00:03:18;23.70;29.70
418;DHT22;49;48.530;9.200;2022-07-06T00:05:46;23.70;32.20
418;DHT22;49;48.530;9.200;2022-07-06T00:08:13;23.80;30.10
418;DHT22;49;48.530;9.200;2022-07-06T00:10:40;23.60;27.90
418;DHT22;49;48.530;9.200;2022-07-06T00:13:07;23.20;32.70
418;DHT22;49;48.530;9.200;2022-07-06T00:15:34;23.50;33.70
418;DHT22;49;48.530;9.200;2022-07-06T00:18:01;23.50;28.40
418;DHT22;49;48.530;9.200;2022-07-06T00:20:28;23.50;28.90
418;DHT22;49;48.530;9.200;2022-07-06T00:22:57;23.10;29.40
418;DHT22;49;48.530;9.200;2022-07-06T00:25:24;22.60;30.30
418;DHT22;49;48.530;9.200;2022-07-06T00:27:50;22.60;30.80
418;DHT22;49;48.530;9.200;2022-07-06T00:30:18;22.60;32.10
418;DHT22;49;48.530;9.200;2022-07-06T00:32:44;22.90;32.40
418;DHT22;49;48.530;9.200;2022-07-06T00:35:11;23.10;31.00
418;DHT22;49;48.530;9.200;2022-07-06T00:37:38;23.30;29.80
418;DHT22;49;48.530;9.200;2022-07-06T00:40:08;23.10;29.90
418;DHT22;49;48.530;9.200;2022-07-06T00:42:41;23.10;29.90
418;DHT22;49;48.530;9.200;2022-07-06T00:45:09;22.80;29.20
418;DHT22;49;48.530;9.200;2022-07-06T01:07:52;22.20;30.40
418;DHT22;49;48.530;9.200;2022-07-06T01:10:21;22.20;31.80
418;DHT22;49;48.530;9.200;2022-07-06T01:12:48;21.90;34.00
418;DHT22;49;48.530;9.200;2022-07-06T01:15:16;22.30;31.90
418;DHT22;49;48.530;9.200;2022-07-06T01:17:44;22.00;30.90
418;DHT22;49;48.530;9.200;2022-07-06T01:20:13;22.20;32.50
418;DHT22;49;48.530;9.200;2022-07-06T01:22:40;22.20;31.00
418;DHT22;49;48.530;9.200;2022-07-06T01:25:07;22.00;31.60
418;DHT22;49;48.530;9.200;2022-07-06T01:27:36;22.10;36.70
418;DHT22;49;48.530;9.200;2022-07-06T01:30:05;22.60;31.80
418;DHT22;49;48.530;9.200;2022-07-06T01:32:32;22.50;32.00
418;DHT22;49;48.530;9.200;2022-07-06T01:34:59;22.50;30.50
418;DHT22;49;48.530;9.200;2022-07-06T01:37:28;22.50;34.90
418;DHT22;49;48.530;9.200;2022-07-06T01:39:58;22.70;35.30
418;DHT22;49;48.530;9.200;2022-07-06T01:42:25;22.50;32.00
418;DHT22;49;48.530;9.200;2022-07-06T01:44:53;22.70;33.00
418;DHT22;49;48.530;9.200;2022-07-06T01:47:20;22.70;31.30
418;DHT22;49;48.530;9.200;2022-07-06T01:49:47;22.60;32.20
418;DHT22;49;48.530;9.200;2022-07-06T01:52:14;22.50;32.00
418;DHT22;49;48.530;9.200;2022-07-06T01:54:43;22.60;36.60
418;DHT22;49;48.530;9.200;2022-07-06T01:57:10;22.80;35.30
418;DHT22;49;48.530;9.200;2022-07-06T01:59:37;23.00;34.50
418;DHT22;49;48.530;9.200;2022-07-06T02:02:04;23.10;35.20
418;DHT22;49;48.530;9.200;2022-07-06T02:04:31;23.10;32.60
418;DHT22;49;48.530;9.200;2022-07-06T02:06:58;23.20;34.60
418;DHT22;49;48.530;9.200;2022-07-06T02:09:25;23.10;33.10
418;DHT22;49;48.530;9.200;2022-07-06T02:11:53;22.90;30.10
418;DHT22;49;48.530;9.200;2022-07-06T02:14:20;22.50;32.80
418;DHT22;49;48.530;9.200;2022-07-06T02:16:47;22.60;34.00
418;DHT22;49;48.530;9.200;2022-07-06T02:19:14;22.20;31.80
418;DHT22;49;48.530;9.200;2022-07-06T02:21:41;21.80;32.00
418;DHT22;49;48.530;9.200;2022-07-06T02:24:08;21.80;32.60
418;DHT22;49;48.530;9.200;2022-07-06T02:26:35;21.90;35.20
418;DHT22;49;48.530;9.200;2022-07-06T02:29:03;22.00;32.40
418;DHT22;49;48.530;9.200;2022-07-06T02:31:30;21.60;31.90
418;DHT22;49;48.530;9.200;2022-07-06T02:33:57;21.30;37.30
418;DHT22;49;48.530;9.200;2022-07-06T02:36:24;21.00;35.90
418;DHT22;49;48.530;9.200;2022-07-06T02:38:51;21.20;34.70
418;DHT22;49;48.530;9.200;2022-07-06T02:41:19;21.00;34.50
418;DHT22;49;48.530;9.200;2022-07-06T02:43:46;21.20;33.80
418;DHT22;49;48.530;9.200;2022-07-06T02:46:14;21.50;34.60
418;DHT22;49;48.530;9.200;2022-07-06T02:48:41;21.80;38.90
418;DHT22;49;48.530;9.200;2022-07-06T02:51:08;21.60;32.50
418;DHT22;49;48.530;9.200;2022-07-06T02:53:35;22.00;37.10
418;DHT22;49;48.530;9.200;2022-07-06T02:56:02;22.20;37.00
418;DHT22;49;48.530;9.200;2022-07-06T02:58:29;22.40;38.10
418;DHT22;49;48.530;9.200;2022-07-06T03:00:56;22.40;34.80
418;DHT22;49;48.530;9.200;2022-07-06T03:03:25;22.60;34.30
418;DHT22;49;48.530;9.200;2022-07-06T03:05:52;21.90;33.80
418;DHT22;49;48.530;9.200;2022-07-06T03:08:18;21.30;38.80
418;DHT22;49;48.530;9.200;2022-07-06T03:10:45;21.90;38.60
418;DHT22;49;48.530;9.200;2022-07-06T03:13:12;22.20;36.80
418;DHT22;49;48.530;9.200;2022-07-06T03:15:39;22.20;35.00
418;DHT22;49;48.530;9.200;2022-07-06T03:18:06;21.80;32.20
418;DHT22;49;48.530;9.200;2022-07-06T03:20:34;21.90;36.20
418;DHT22;49;48.530;9.200;2022-07-06T03:23:01;22.00;36.90
418;DHT22;49;48.530;9.200;2022-07-06T03:25:28;22.20;38.70
418;DHT22;49;48.530;9.200;2022-07-06T03:27:55;21.90;32.90
418;DHT22;49;48.530;9.200;2022-07-06T03:30:22;21.90;34.30
418;DHT22;49;48.530;9.200;2022-07-06T03:32:49;21.90;37.10
418;DHT22;49;48.530;9.200;2022-07-06T03:35:15;22.20;38.60
418;DHT22;49;48.530;9.200;2022-07-06T03:37:44;22.40;37.80
418;DHT22;49;48.530;9.200;2022-07-06T03:40:11;22.60;36.40
418;DHT22;49;48.530;9.200;2022-07-06T03:42:39;22.70;36.00
418;DHT22;49;48.530;9.200;2022-07-06T03:45:07;22.80;35.30
418;DHT22;49;48.530;9.200;2022-07-06T03:47:34;22.80;35.50
418;DHT22;49;48.530;9.200;2022-07-06T03:50:01;22.90;35.70
418;DHT22;49;48.530;9.200;2022-07-06T03:52:28;22.80;32.30
418;DHT22;49;48.530;9.200;2022-07-06T03:54:56;22.50;32.50
418;DHT22;49;48.530;9.200;2022-07-06T03:57:23;22.30;32.50
418;DHT22;49;48.530;9.200;2022-07-06T03:59:51;22.10;33.80
418;DHT22;49;48.530;9.200;2022-07-06T04:02:18;22.00;34.20
418;DHT22;49;48.530;9.200;2022-07-06T04:04:45;21.40;34.50
418;DHT22;49;48.530;9.200;2022-07-06T04:07:12;21.10;36.60
418;DHT22;49;48.530;9.200;2022-07-06T04:09:39;20.80;36.00
418;DHT22;49;48.530;9.200;2022-07-06T04:12:07;20.90;36.00
418;DHT22;49;48.530;9.200;2022-07-06T04:14:34;21.00;36.00
418;DHT22;49;48.530;9.200;2022-07-06T04:17:01;21.30;34.70
418;DHT22;49;48.530;9.200;2022-07-06T04:19:50;21.30;37.40
418;DHT22;49;48.530;9.200;2022-07-06T04:22:17;21.30;35.40
418;DHT22;49;48.530;9.200;2022-07-06T04:24:44;21.20;37.10
418;DHT22;49;48.530;9.200;2022-07-06T04:27:12;21.50;39.40
418;DHT22;49;48.530;9.200;2022-07-06T04:29:39;21.90;37.40
418;DHT22;49;48.530;9.200;2022-07-06T04:32:06;22.00;34.40
418;DHT22;49;48.530;9.200;2022-07-06T04:34:34;22.20;32.10
418;DHT22;49;48.530;9.200;2022-07-06T04:39:51;22.30;32.50
418;DHT22;49;48.530;9.200;2022-07-06T04:42:19;22.50;32.00
418;DHT22;49;48.530;9.200;2022-07-06T04:44:46;22.30;32.80
418;DHT22;49;48.530;9.200;2022-07-06T04:47:13;22.10;35.20
418;DHT22;49;48.530;9.200;2022-07-06T04:49:40;22.20;32.00
418;DHT22;49;48.530;9.200;2022-07-06T04:52:08;22.30;34.30
418;DHT22;49;48.530;9.200;2022-07-06T04:54:35;22.40;32.00
418;DHT22;49;48.530;9.200;2022-07-06T04:57:03;22.20;37.20
418;DHT22;49;48.530;9.200;2022-07-06T04:59:31;22.60;35.20
418;DHT22;49;48.530;9.200;2022-07-06T05:01:58;23.00;34.00
418;DHT22;49;48.530;9.200;2022-07-06T05:04:25;23.10;33.60
418;DHT22;49;48.530;9.200;2022-07-06T05:06:52;23.20;33.30
418;DHT22;49;48.530;9.200;2022-07-06T05:09:18;23.50;32.90
418;DHT22;49;48.530;9.200;2022-07-06T05:11:45;23.60;33.70
418;DHT22;49;48.530;9.200;2022-07-06T05:14:12;23.90;33.30
418;DHT22;49;48.530;9.200;2022-07-06T05:16:41;24.10;31.60
418;DHT22;49;48.530;9.200;2022-07-06T05:19:08;24.10;32.90
418;DHT22;49;48.530;9.200;2022-07-06T05:21:35;23.90;29.60
418;DHT22;49;48.530;9.200;2022-07-06T05:24:02;24.10;31.40
418;DHT22;49;48.530;9.200;2022-07-06T05:26:29;24.20;29.70
418;DHT22;49;48.530;9.200;2022-07-06T05:28:56;24.20;30.30
418;DHT22;49;48.530;9.200;2022-07-06T05:31:23;24.20;29.60
418;DHT22;49;48.530;9.200;2022-07-06T05:33:51;24.20;29.10
418;DHT22;49;48.530;9.200;2022-07-06T05:36:18;24.10;30.40
418;DHT22;49;48.530;9.200;2022-07-06T05:38:45;24.20;28.80
418;DHT22;49;48.530;9.200;2022-07-06T05:41:12;24.30;30.00
418;DHT22;49;48.530;9.200;2022-07-06T05:43:40;24.60;28.90
418;DHT22;49;48.530;9.200;2022-07-06T05:46:07;25.00;28.60
418;DHT22;49;48.530;9.200;2022-07-06T05:48:34;26.30;28.00
418;DHT22;49;48.530;9.200;2022-07-06T05:51:20;27.90;24.70
418;DHT22;49;48.530;9.200;2022-07-06T05:53:47;29.30;23.10
418;DHT22;49;48.530;9.200;2022-07-06T05:56:14;30.40;22.10
418;DHT22;49;48.530;9.200;2022-07-06T05:58:41;31.60;18.90
418;DHT22;49;48.530;9.200;2022-07-06T06:01:08;31.60;18.90
418;DHT22;49;48.530;9.200;2022-07-06T06:03:36;32.20;18.60
418;DHT22;49;48.530;9.200;2022-07-06T06:06:05;33.30;16.30
418;DHT22;49;48.530;9.200;2022-07-06T06:08:33;33.40;16.00
418;DHT22;49;48.530;9.200;2022-07-06T06:11:00;33.40;15.90
418;DHT22;49;48.530;9.200;2022-07-06T06:13:27;34.00;15.80
418;DHT22;49;48.530;9.200;2022-07-06T06:15:54;34.60;14.60
418;DHT22;49;48.530;9.200;2022-07-06T06:18:21;34.00;14.50
418;DHT22;49;48.530;9.200;2022-07-06T06:20:48;34.00;14.90
418;DHT22;49;48.530;9.200;2022-07-06T06:23:15;34.10;14.60
418;DHT22;49;48.530;9.200;2022-07-06T06:25:44;34.40;14.10
418;DHT22;49;48.530;9.200;2022-07-06T06:28:15;34.30;13.80
418;DHT22;49;48.530;9.200;2022-07-06T06:30:43;35.20;13.30
418;DHT22;49;48.530;9.200;2022-07-06T06:33:13;35.50;13.20
418;DHT22;49;48.530;9.200;2022-07-06T06:35:43;35.90;12.30
418;DHT22;49;48.530;9.200;2022-07-06T06:38:12;36.30;11.80
418;DHT22;49;48.530;9.200;2022-07-06T06:40:52;35.90;12.20
418;DHT22;49;48.530;9.200;2022-07-06T06:43:20;35.60;12.70
418;DHT22;49;48.530;9.200;2022-07-06T06:45:47;35.50;12.50
418;DHT22;49;48.530;9.200;2022-07-06T06:48:14;35.30;11.90
418;DHT22;49;48.530;9.200;2022-07-06T06:50:43;34.90;13.00
418;DHT22;49;48.530;9.200;2022-07-06T06:53:12;36.10;12.10
418;DHT22;49;48.530;9.200;2022-07-06T06:55:40;36.40;11.80
418;DHT22;49;48.530;9.200;2022-07-06T06:58:10;36.60;11.20
418;DHT22;49;48.530;9.200;2022-07-06T07:00:37;36.50;11.50
418;DHT22;49;48.530;9.200;2022-07-06T07:03:04;37.30;10.30
418;DHT22;49;48.530;9.200;2022-07-06T07:05:31;37.40;10.50
418;DHT22;49;48.530;9.200;2022-07-06T07:07:58;37.50;9.90
418;DHT22;49;48.530;9.200;2022-07-06T07:10:25;37.10;10.80
418;DHT22;49;48.530;9.200;2022-07-06T07:12:52;37.90;9.50
418;DHT22;49;48.530;9.200;2022-07-06T07:15:21;37.30;9.50
418;DHT22;49;48.530;9.200;2022-07-06T07:17:48;35.80;11.00
418;DHT22;49;48.530;9.200;2022-07-06T07:20:15;36.80;10.70
418;DHT22;49;48.530;9.200;2022-07-06T07:22:43;36.70;10.30
418;DHT22;49;48.530;9.200;2022-07-06T07:25:10;36.50;10.90
418;DHT22;49;48.530;9.200;2022-07-06T07:27:37;36.70;10.80
418;DHT22;49;48.530;9.200;2022-07-06T07:30:05;36.30;11.80
418;DHT22;49;48.530;9.200;2022-07-06T07:32:33;36.30;11.00
418;DHT22;49;48.530;9.200;2022-07-06T07:35:00;36.80;10.70
418;DHT22;49;48.530;9.200;2022-07-06T07:37:28;36.90;10.70
418;DHT22;49;48.530;9.200;2022-07-06T07:39:55;37.20;10.00
418;DHT22;49;48.530;9.200;2022-07-06T07:42:22;37.80;9.50
418;DHT22;49;48.530;9.200;2022-07-06T07:44:49;37.60;9.70
418;DHT22;49;48.530;9.200;2022-07-06T07:47:16;37.50;10.30
418;DHT22;49;48.530;9.200;2022-07-06T07:49:44;37.80;9.40
418;DHT22;49;48.530;9.200;2022-07-06T07:52:11;37.00;10.80
418;DHT22;49;48.530;9.200;2022-07-06T07:54:38;36.60;10.80
418;DHT22;49;48.530;9.200;2022-07-06T07:57:05;36.20;11.00
418;DHT22;49;48.530;9.200;2022-07-06T07:59:32;35.90;11.90
418;DHT22;49;48.530;9.200;2022-07-06T08:01:59;35.80;11.50
418;DHT22;49;48.530;9.200;2022-07-06T08:04:26;34.40;12.50
418;DHT22;49;48.530;9.200;2022-07-06T08:06:54;33.80;13.00
418;DHT22;49;48.530;9.200;2022-07-06T08:09:22;34.80;12.80
418;DHT22;49;48.530;9.200;2022-07-06T08:12:04;34.50;12.90
418;DHT22;49;48.530;9.200;2022-07-06T08:14:45;35.20;12.30
418;DHT22;49;48.530;9.200;2022-07-06T08:17:15;35.60;11.50
418;DHT22;49;48.530;9.200;2022-07-06T08:19:43;35.50;11.50
418;DHT22;49;48.530;9.200;2022-07-06T08:22:12;35.20;12.00
418;DHT22;49;48.530;9.200;2022-07-06T08:24:48;34.80;12.30
418;DHT22;49;48.530;9.200;2022-07-06T08:27:16;34.60;12.60
418;DHT22;49;48.530;9.200;2022-07-06T08:29:43;34.60;12.40
418;DHT22;49;48.530;9.200;2022-07-06T08:32:12;34.30;12.30
418;DHT22;49;48.530;9.200;2022-07-06T08:34:39;34.70;12.50
418;DHT22;49;48.530;9.200;2022-07-06T08:37:11;34.90;12.60
418;DHT22;49;48.530;9.200;2022-07-06T08:39:38;35.20;11.70
418;DHT22;49;48.530;9.200;2022-07-06T08:42:07;35.30;12.30
418;DHT22;49;48.530;9.200;2022-07-06T08:44:36;35.30;12.30
418;DHT22;49;48.530;9.200;2022-07-06T08:47:05;35.70;11.40
418;DHT22;49;48.530;9.200;2022-07-06T08:49:33;35.40;11.30
418;DHT22;49;48.530;9.200;2022-07-06T08:52:04;34.60;13.20
418;DHT22;49;48.530;9.200;2022-07-06T08:54:33;34.60;13.10
418;DHT22;49;48.530;9.200;2022-07-06T08:57:02;35.30;12.40
418;DHT22;49;48.530;9.200;2022-07-06T08:59:29;34.50;12.40
418;DHT22;49;48.530;9.200;2022-07-06T09:01:56;34.00;12.40
418;DHT22;49;48.530;9.200;2022-07-06T09:04:25;33.50;13.70
418;DHT22;49;48.530;9.200;2022-07-06T09:06:54;33.80;13.30
418;DHT22;49;48.530;9.200;2022-07-06T09:09:23;33.80;13.80
418;DHT22;49;48.530;9.200;2022-07-06T09:11:52;33.80;13.00
418;DHT22;49;48.530;9.200;2022-07-06T09:14:19;34.00;13.10
418;DHT22;49;48.530;9.200;2022-07-06T09:16:51;33.10;13.60
418;DHT22;49;48.530;9.200;2022-07-06T09:19:18;33.30;13.50
418;DHT22;49;48.530;9.200;2022-07-06T09:21:45;32.60;14.10
418;DHT22;49;48.530;9.200;2022-07-06T09:24:12;32.20;14.80
418;DHT22;49;48.530;9.200;2022-07-06T09:26:40;31.80;15.70
418;DHT22;49;48.530;9.200;2022-07-06T09:29:10;31.80;16.00
418;DHT22;49;48.530;9.200;2022-07-06T09:31:37;31.60;15.30
418;DHT22;49;48.530;9.200;2022-07-06T09:34:06;31.50;15.50
418;DHT22;49;48.530;9.200;2022-07-06T09:36:44;31.40;16.90
418;DHT22;49;48.530;9.200;2022-07-06T09:39:31;30.90;16.70
418;DHT22;49;48.530;9.200;2022-07-06T09:42:01;31.10;16.20
418;DHT22;49;48.530;9.200;2022-07-06T09:44:31;30.80;16.50
418;DHT22;49;48.530;9.200;2022-07-06T09:47:00;31.30;15.50
418;DHT22;49;48.530;9.200;2022-07-06T09:49:28;30.70;16.30
418;DHT22;49;48.530;9.200;2022-07-06T09:51:56;30.60;16.40
418;DHT22;49;48.530;9.200;2022-07-06T09:54:23;31.00;15.40
418;DHT22;49;48.530;9.200;2022-07-06T09:56:51;30.70;15.90
418;DHT22;49;48.530;9.200;2022-07-06T09:59:21;30.60;16.60
418;DHT22;49;48.530;9.200;2022-07-06T10:01:52;31.20;16.00
418;DHT22;49;48.530;9.200;2022-07-06T10:04:20;31.10;15.60
418;DHT22;49;48.530;9.200;2022-07-06T10:06:48;31.20;16.20
418;DHT22;49;48.530;9.200;2022-07-06T10:09:16;31.60;15.10
418;DHT22;49;48.530;9.200;2022-07-06T10:11:49;31.60;16.20
418;DHT22;49;48.530;9.200;2022-07-06T10:14:19;31.60;16.40
418;DHT22;49;48.530;9.200;2022-07-06T10:16:47;31.80;15.80
418;DHT22;49;48.530;9.200;2022-07-06T10:19:18;32.00;14.90
418;DHT22;49;48.530;9.200;2022-07-06T10:21:45;31.50;15.80
418;DHT22;49;48.530;9.200;2022-07-06T10:24:13;31.60;15.40
418;DHT22;49;48.530;9.200;2022-07-06T10:26:41;31.60;15.50
418;DHT22;49;48.530;9.200;2022-07-06T10:29:08;31.60;15.90
418;DHT22;49;48.530;9.200;2022-07-06T10:31:38;31.50;15.60
418;DHT22;49;48.530;9.200;2022-07-06T10:34:07;31.60;15.20
418;DHT22;49;48.530;9.200;2022-07-06T10:36:41;31.20;15.10
418;DHT22;49;48.530;9.200;2022-07-06T10:39:09;31.10;15.40
418;DHT22;49;48.530;9.200;2022-07-06T10:42:08;30.50;16.60
418;DHT22;49;48.530;9.200;2022-07-06T10:44:44;30.40;16.70
418;DHT22;49;48.530;9.200;2022-07-06T10:47:11;30.10;17.40
418;DHT22;49;48.530;9.200;2022-07-06T10:49:48;29.90;18.00
418;DHT22;49;48.530;9.200;2022-07-06T10:52:17;30.20;17.40
418;DHT22;49;48.530;9.200;2022-07-06T10:54:46;30.40;17.20
418;DHT22;49;48.530;9.200;2022-07-06T10:57:14;30.70;16.40
418;DHT22;49;48.530;9.200;2022-07-06T10:59:41;30.80;16.10
418;DHT22;49;48.530;9.200;2022-07-06T11:02:26;31.10;16.30
418;DHT22;49;48.530;9.200;2022-07-06T11:04:53;31.30;16.10
418;DHT22;49;48.530;9.200;2022-07-06T11:07:21;30.80;15.70
418;DHT22;49;48.530;9.200;2022-07-06T11:09:54;30.50;17.30
418;DHT22;49;48.530;9.200;2022-07-06T11:12:22;30.40;17.20
418;DHT22;49;48.530;9.200;2022-07-06T11:14:51;29.80;17.90
418;DHT22;49;48.530;9.200;2022-07-06T11:17:19;28.70;19.20
418;DHT22;49;48.530;9.200;2022-07-06T11:19:49;29.00;18.70
418;DHT22;49;48.530;9.200;2022-07-06T11:22:17;28.40;19.90
418;DHT22;49;48.530;9.200;2022-07-06T11:24:47;28.50;19.60
418;DHT22;49;48.530;9.200;2022-07-06T11:27:14;28.60;20.40
418;DHT22;49;48.530;9.200;2022-07-06T11:29:41;29.20;19.00
418;DHT22;49;48.530;9.200;2022-07-06T11:32:11;29.00;19.00
418;DHT22;49;48.530;9.200;2022-07-06T11:34:41;28.20;19.40
418;DHT22;49;48.530;9.200;2022-07-06T11:37:11;28.20;19.50
418;DHT22;49;48.530;9.200;2022-07-06T11:39:41;28.60;19.60
418;DHT22;49;48.530;9.200;2022-07-06T11:42:10;29.20;18.30
418;DHT22;49;48.530;9.200;2022-07-06T11:44:38;29.20;17.90
418;DHT22;49;48.530;9.200;2022-07-06T11:47:07;28.80;18.80
418;DHT22;49;48.530;9.200;2022-07-06T11:49:35;28.70;18.60
418;DHT22;49;48.530;9.200;2022-07-06T11:52:05;28.90;18.20
418;DHT22;49;48.530;9.200;2022-07-06T11:54:33;29.20;18.70
418;DHT22;49;48.530;9.200;2022-07-06T11:57:01;28.70;19.20
418;DHT22;49;48.530;9.200;2022-07-06T11:59:37;28.20;19.90
418;DHT22;49;48.530;9.200;2022-07-06T12:02:06;28.20;19.90
418;DHT22;49;48.530;9.200;2022-07-06T12:04:35;27.90;19.50
418;DHT22;49;48.530;9.200;2022-07-06T12:07:04;27.60;20.50
418;DHT22;49;48.530;9.200;2022-07-06T12:09:31;28.10;19.80
418;DHT22;49;48.530;9.200;2022-07-06T12:11:59;28.00;20.70
418;DHT22;49;48.530;9.200;2022-07-06T12:14:30;28.70;19.70
418;DHT22;49;48.530;9.200;2022-07-06T12:17:02;29.10;19.30
418;DHT22;49;48.530;9.200;2022-07-06T12:19:30;28.70;19.10
418;DHT22;49;48.530;9.200;2022-07-06T12:21:57;28.50;19.80
418;DHT22;49;48.530;9.200;2022-07-06T12:24:25;28.50;19.70
418;DHT22;49;48.530;9.200;2022-07-06T12:26:54;28.40;20.40
418;DHT22;49;48.530;9.200;2022-07-06T12:29:22;28.50;20.20
418;DHT22;49;48.530;9.200;2022-07-06T12:31:52;28.80;19.80
418;DHT22;49;48.530;9.200;2022-07-06T12:34:20;29.10;19.90
418;DHT22;49;48.530;9.200;2022-07-06T12:36:51;28.70;20.00
418;DHT22;49;48.530;9.200;2022-07-06T12:39:21;28.50;21.10
418;DHT22;49;48.530;9.200;2022-07-06T12:41:49;28.00;21.30
418;DHT22;49;48.530;9.200;2022-07-06T12:44:17;27.90;21.50
418;DHT22;49;48.530;9.200;2022-07-06T12:46:45;28.40;21.10
418;DHT22;49;48.530;9.200;2022-07-06T12:49:20;28.80;20.10
418;DHT22;49;48.530;9.200;2022-07-06T12:51:59;29.10;19.50
418;DHT22;49;48.530;9.200;2022-07-06T12:54:32;29.10;19.90
418;DHT22;49;48.530;9.200;2022-07-06T12:57:06;27.60;20.70
418;DHT22;49;48.530;9.200;2022-07-06T12:59:35;27.10;22.70
418;DHT22;49;48.530;9.200;2022-07-06T13:02:04;27.70;22.90
418;DHT22;49;48.530;9.200;2022-07-06T13:04:33;28.50;21.20
418;DHT22;49;48.530;9.200;2022-07-06T13:07:01;29.20;20.40
418;DHT22;49;48.530;9.200;2022-07-06T13:09:29;29.50;20.10
418;DHT22;49;48.530;9.200;2022-07-06T13:11:57;29.70;19.70
418;DHT22;49;48.530;9.200;2022-07-06T13:14:24;30.00;19.80
418;DHT22;49;48.530;9.200;2022-07-06T13:16:51;29.70;19.60
418;DHT22;49;48.530;9.200;2022-07-06T13:19:19;29.00;21.10
418;DHT22;49;48.530;9.200;2022-07-06T13:21:48;29.30;21.10
418;DHT22;49;48.530;9.200;2022-07-06T13:24:15;29.40;20.10
418;DHT22;49;48.530;9.200;2022-07-06T13:26:42;29.50;20.00
418;DHT22;49;48.530;9.200;2022-07-06T13:29:10;29.50;20.10
418;DHT22;49;48.530;9.200;2022-07-06T13:31:38;29.40;20.60
418;DHT22;49;48.530;9.200;2022-07-06T13:34:19;29.60;20.20
418;DHT22;49;48.530;9.200;2022-07-06T13:36:48;29.50;20.30
418;DHT22;49;48.530;9.200;2022-07-06T13:39:15;29.40;20.70
418;DHT22;49;48.530;9.200;2022-07-06T13:41:42;29.00;20.40
418;DHT22;49;48.530;9.200;2022-07-06T13:44:10;28.80;20.80
418;DHT22;49;48.530;9.200;2022-07-06T13:46:38;28.20;21.40
418;DHT22;49;48.530;9.200;2022-07-06T13:49:06;28.50;21.70
418;DHT22;49;48.530;9.200;2022-07-06T13:51:33;29.20;21.40
418;DHT22;49;48.530;9.200;2022-07-06T13:54:01;29.20;20.80
418;DHT22;49;48.530;9.200;2022-07-06T13:56:28;29.00;20.70
418;DHT22;49;48.530;9.200;2022-07-06T13:58:55;29.10;21.50
418;DHT22;49;48.530;9.200;2022-07-06T14:01:23;29.10;20.60
418;DHT22;49;48.530;9.200;2022-07-06T14:03:54;28.30;21.60
418;DHT22;49;48.530;9.200;2022-07-06T14:06:21;27.70;22.50
418;DHT22;49;48.530;9.200;2022-07-06T14:08:49;27.90;22.10
418;DHT22;49;48.530;9.200;2022-07-06T14:11:20;27.70;22.90
418;DHT22;49;48.530;9.200;2022-07-06T14:13:47;28.30;22.20
418;DHT22;49;48.530;9.200;2022-07-06T14:16:14;28.70;21.00
418;DHT22;49;48.530;9.200;2022-07-06T14:18:41;28.70;21.60
418;DHT22;49;48.530;9.200;2022-07-06T14:21:08;28.60;21.10
418;DHT22;49;48.530;9.200;2022-07-06T14:23:36;28.60;21.00
418;DHT22;49;48.530;9.200;2022-07-06T14:26:03;28.70;20.70
418;DHT22;49;48.530;9.200;2022-07-06T14:28:32;28.20;21.30
418;DHT22;49;48.530;9.200;2022-07-06T14:30:59;27.90;21.60
418;DHT22;49;48.530;9.200;2022-07-06T14:33:28;27.80;21.70
418;DHT22;49;48.530;9.200;2022-07-06T14:35:56;27.60;22.10
418;DHT22;49;48.530;9.200;2022-07-06T14:38:24;27.60;22.40
418;DHT22;49;48.530;9.200;2022-07-06T14:40:53;27.90;21.60
418;DHT22;49;48.530;9.200;2022-07-06T14:43:20;28.40;21.20
418;DHT22;49;48.530;9.200;2022-07-06T14:45:49;28.90;20.30
418;DHT22;49;48.530;9.200;2022-07-06T14:48:16;29.40;20.20
418;DHT22;49;48.530;9.200;2022-07-06T14:50:44;29.80;19.10
418;DHT22;49;48.530;9.200;2022-07-06T14:53:11;29.60;18.60
418;DHT22;49;48.530;9.200;2022-07-06T14:55:40;29.60;20.00
418;DHT22;49;48.530;9.200;2022-07-06T14:58:08;29.90;18.60
418;DHT22;49;48.530;9.200;2022-07-06T15:00:35;30.00;18.70
418;DHT22;49;48.530;9.200;2022-07-06T15:03:03;30.10;18.90
418;DHT22;49;48.530;9.200;2022-07-06T15:05:30;30.10;18.40
418;DHT22;49;48.530;9.200;2022-07-06T15:07:57;29.70;18.70
418;DHT22;49;48.530;9.200;2022-07-06T15:10:24;29.10;19.00
418;DHT22;49;48.530;9.200;2022-07-06T15:12:51;28.70;19.40
418;DHT22;49;48.530;9.200;2022-07-06T15:15:18;28.60;19.70
418;DHT22;49;48.530;9.200;2022-07-06T15:17:45;28.80;19.90
418;DHT22;49;48.530;9.200;2022-07-06T15:20:17;29.00;19.00
418;DHT22;49;48.530;9.200;2022-07-06T15:22:45;29.20;18.70
418;DHT22;49;48.530;9.200;2022-07-06T15:25:12;29.60;18.00
418;DHT22;49;48.530;9.200;2022-07-06T15:27:39;29.80;18.80
418;DHT22;49;48.530;9.200;2022-07-06T15:30:07;29.60;18.40
418;DHT22;49;48.530;9.200;2022-07-06T15:32:34;29.20;19.10
418;DHT22;49;48.530;9.200;2022-07-06T15:35:01;29.10;18.80
418;DHT22;49;48.530;9.200;2022-07-06T15:37:32;28.00;20.20
418;DHT22;49;48.530;9.200;2022-07-06T15:39:59;28.30;20.90
418;DHT22;49;48.530;9.200;2022-07-06T15:42:26;28.60;20.20
418;DHT22;49;48.530;9.200;2022-07-06T15:44:53;29.00;19.30
418;DHT22;49;48.530;9.200;2022-07-06T15:47:20;29.20;18.40
418;DHT22;49;48.530;9.200;2022-07-06T15:49:48;29.40;18.30
418;DHT22;49;48.530;9.200;2022-07-06T15:52:16;29.20;19.10
418;DHT22;49;48.530;9.200;2022-07-06T15:54:44;28.60;19.30
418;DHT22;49;48.530;9.200;2022-07-06T15:57:11;27.90;20.20
418;DHT22;49;48.530;9.200;2022-07-06T15:59:38;28.20;20.50
418;DHT22;49;48.530;9.200;2022-07-06T16:02:05;28.30;19.80
418;DHT22;49;48.530;9.200;2022-07-06T16:04:32;28.20;19.70
418;DHT22;49;48.530;9.200;2022-07-06T16:06:59;28.30;20.40
418;DHT22;49;48.530;9.200;2022-07-06T16:09:26;28.70;19.10
418;DHT22;49;48.530;9.200;2022-07-06T16:11:54;28.90;18.80
418;DHT22;49;48.530;9.200;2022-07-06T16:14:21;29.30;18.20
418;DHT22;49;48.530;9.200;2022-07-06T16:16:48;29.50;18.50
418;DHT22;49;48.530;9.200;2022-07-06T16:19:15;29.10;18.00
418;DHT22;49;48.530;9.200;2022-07-06T16:21:42;29.00;19.00
418;DHT22;49;48.530;9.200;2022-07-06T16:24:09;28.90;18.70
418;DHT22;49;48.530;9.200;2022-07-06T16:26:36;28.60;18.50
418;DHT22;49;48.530;9.200;2022-07-06T16:29:04;27.50;19.70
418;DHT22;49;48.530;9.200;2022-07-06T16:31:31;27.10;20.10
418;DHT22;49;48.530;9.200;2022-07-06T16:33:58;27.10;20.80
418;DHT22;49;48.530;9.200;2022-07-06T16:36:25;27.20;20.30
418;DHT22;49;48.530;9.200;2022-07-06T16:38:52;27.10;21.00
418;DHT22;49;48.530;9.200;2022-07-06T16:41:19;27.00;21.10
418;DHT22;49;48.530;9.200;2022-07-06T16:43:46;27.40;21.00
418;DHT22;49;48.530;9.200;2022-07-06T16:46:15;27.50;19.90
418;DHT22;49;48.530;9.200;2022-07-06T16:48:42;27.30;19.80
418;DHT22;49;48.530;9.200;2022-07-06T16:51:09;27.40;20.70
418;DHT22;49;48.530;9.200;2022-07-06T16:53:36;27.50;20.40
418;DHT22;49;48.530;9.200;2022-07-06T16:56:03;27.80;19.60
418;DHT22;49;48.530;9.200;2022-07-06T16:58:40;27.90;19.40
418;DHT22;49;48.530;9.200;2022-07-06T17:01:12;27.80;19.80
418;DHT22;49;48.530;9.200;2022-07-06T17:03:40;27.70;19.90
418;DHT22;49;48.530;9.200;2022-07-06T17:06:07;27.60;19.80
418;DHT22;49;48.530;9.200;2022-07-06T17:08:34;27.20;20.00
418;DHT22;49;48.530;9.200;2022-07-06T17:11:01;26.90;19.70
418;DHT22;49;48.530;9.200;2022-07-06T17:13:31;27.10;20.60
418;DHT22;49;48.530;9.200;2022-07-06T17:16:00;27.40;20.30
418;DHT22;49;48.530;9.200;2022-07-06T17:18:27;27.60;19.70
418;DHT22;49;48.530;9.200;2022-07-06T17:20:56;27.70;18.30